Aérodrome :
LOGIN :

S'inscrire | Disclaimer

   EN    FR    IT 

 










Légende :    VFR   VFR Marginal   IFR   IFR Intensif   IFR Très Intensif
Visi : 
Plafond : 
>= 8 km
>= 3000ft
5 à 8 km
1000 à 3000 ft
1500m à 5 km
500 à 1000 ft
800 à 1500m
200 à 500 ft
< 800m
< 200 ft
Symboles :   Orages  Brouillard  Fortes neiges  Fortes précipitations  Vent > 20 kt
SIGMETs :   Divers  Orages  Givrage  Turbulence  Onde Orograph.  Cendres Volcan.






- Altitude de l'aérodrome : 2945 ft
- Code IATA : RGS


LEBG - Burgos

DERNIER METAR :
  • 250330Z AUTO 03002KT CAVOK 07/05 Q1017

METARs EXPIRÉS :
  • 250300Z AUTO 03003KT CAVOK 07/05 Q1017
  • 250230Z AUTO 04001KT CAVOK 08/05 Q1017
  • 250200Z AUTO 04002KT CAVOK 07/05 Q1017
  • 250130Z AUTO 04003KT CAVOK 08/05 Q1017
  • 250030Z AUTO VRB01KT CAVOK 08/06 Q1018
  • 250000Z AUTO 04002KT CAVOK 08/06 Q1018
  • 242330Z AUTO 06002KT CAVOK 09/07 Q1018

TAF TAF LEBG
Valide du 25 à 03h jusqu'au 26 à 03h UTC


250200Z 2503/2603 06005KT CAVOK TX21/2516Z TN07/2505Z
PROB30
TEMPO 2503/2506 4000 BR BKN010
TEMPO 2507/2520 20008KT
PROB40
TEMPO 2512/2518 27010G20KT



MET'MAP, la Météo Aéronautique d'un coup d'oeil ! - Copyright ORBIFLY Décembre 2007 - Disclaimer

ORBIFLY MET'MAP TEAM :

Programmation & Développement : Alexandra Zaïnal
Sur une idée originale de : Baudouin d'Aumeries
Soutien technique & logistique : Manuel Goepfert
Assistance : Marc-Olivier Méhu




SOURCES & CREDITS :

   NOAA